• Join FlightAware (Why Join?)
  • Login
  • US Flag 
01:09PM EDT


 

Airport Tracker/Info


-or-


 

Live Flight TrackerFlight Track Log ✈ UAL582 ✈ 21-Apr-2013 ✈ KORD - KTPA

Flight Track Log - Related Links

Times and Time Zones

All times are in EDT time to prevent confusion due to time zone crossing. See the UAL582 flight status page for this flight to view local times or setup timezone preferences in your user account.

Time Position Orientation Groundspeed Altitude Reporting Facility
EDT Latitude Longitude Course Direction KTS MPH feet Rate Location/Type
09:36PM 41.8786 -87.9053 180° South 193 222 4,900  Level Chicago Center
09:37PM 41.8064 -87.9008 177° South 249 287 8,200 3,240 Climbing Chicago Center
09:38PM 41.6432 -87.7503 180° South  Level Estimated
09:38PM 41.7300 -87.8961 177° South 271 312 11,700  Level Chicago Center
09:39PM 41.5304 -87.6985 176° South  Level Estimated
09:39PM 41.6358 -87.8753 171° South 285 328 15,500  Level Chicago Center
09:40PM 41.4175 -87.6470 189° South  Level Estimated
09:40PM 41.5511 -87.8556 170° South 304 350 17,800  Level Chicago Center
09:41PM 41.3046 -87.5956 180° South  Level Estimated
09:41PM 41.4619 -87.8358 171° South 318 366 20,600  Level Chicago Center
09:42PM 41.3694 -87.8136 170° South 332 382 22,700 1,380 Climbing Chicago Center
09:43PM 41.2714 -87.7906 170° South 352 405 23,500 900 Climbing Chicago Center
09:45PM 41.1625 -87.7653 170° South 393 452 24,600 1,020 Climbing Chicago Center
09:46PM 41.0433 -87.7375 170° South 425 489 25,700 1,200 Climbing Chicago Center
09:47PM 40.9189 -87.7103 171° South 445 512 27,200 1,500 Climbing Chicago Center
09:48PM 40.7906 -87.6814 170° South 463 533 28,800 1,920 Climbing Chicago Center
09:49PM 40.6381 -87.6456 170° South 467 537 31,200 2,040 Climbing Chicago Center
09:50PM 40.5125 -87.6164 170° South 462 532 33,000 1,740 Climbing Chicago Center
09:51PM 40.3903 -87.5883 170° South 451 519 34,800 960 Climbing Chicago Center
09:52PM 40.2692 -87.5608 170° South 444 511 35,000 60 Climbing Chicago Center
09:53PM 40.1503 -87.5350 171° South 439 505 35,000  Level Chicago Center
09:53PM 40.0839 -87.5189 169° South 441 507 35,000  Level Indianapolis Center
09:54PM 39.9600 -87.4933 171° South 447 514 35,000  Level Indianapolis Center
09:55PM 39.8347 -87.4633 170° South 453 521 35,000  Level Indianapolis Center
09:56PM 39.7089 -87.4372 171° South 455 524 35,000  Level Indianapolis Center
09:57PM 39.5850 -87.4083 170° South 452 520 35,000  Level Indianapolis Center
09:58PM 39.4614 -87.3808 170° South 450 518 35,000  Level Indianapolis Center
09:59PM 39.3131 -87.3481 170° South 448 516 35,000  Level Indianapolis Center
10:00PM 39.1889 -87.3211 170° South 451 519 35,000  Level Indianapolis Center
10:01PM 39.0650 -87.2942 170° South 449 517 35,000  Level Indianapolis Center
10:02PM 38.9383 -87.2669 171° South 456 525 35,000  Level Indianapolis Center
10:03PM 38.8133 -87.2394 170° South 453 521 35,000  Level Indianapolis Center
10:04PM 38.6886 -87.2128 171° South 454 522 35,000  Level Indianapolis Center
10:05PM 38.5633 -87.1861 171° South 455 524 35,000  Level Indianapolis Center
10:06PM 38.4386 -87.1594 170° South 454 522 35,000  Level Indianapolis Center
10:07PM 38.3067 -87.1333 171° South 453 521 35,000  Level Indianapolis Center
10:09PM 38.1797 -87.1086 171° South 455 524 35,000  Level Indianapolis Center
10:10PM 38.0728 -87.0814 169° South 457 526 35,000  Level Indianapolis Center
10:11PM 37.9475 -87.0547 170° South 455 524 35,000  Level Indianapolis Center
10:12PM 37.7967 -87.0233 171° South 455 524 35,000  Level Indianapolis Center
10:13PM 37.6706 -86.9969 171° South 457 526 35,000  Level Indianapolis Center
10:13PM 37.6089 -86.9856 172° South 440 506 35,000  Level Memphis Center
10:14PM 37.4833 -86.9594 171° South 454 522 35,000  Level Memphis Center
10:15PM 37.3556 -86.9336 171° South 454 522 35,000  Level Memphis Center
10:16PM 37.2297 -86.9078 171° South 460 529 35,000  Level Memphis Center
10:17PM 37.1025 -86.9056 179° South 465 535 35,000  Level Memphis Center
10:18PM 36.9775 -86.9058 180° South 460 529 35,000  Level Memphis Center
10:19PM 36.8650 -86.9028 179° South 460 529 35,000  Level Memphis Center
10:20PM 36.7378 -86.9031 180° South 455 524 35,000  Level Memphis Center
10:21PM 36.6103 -86.8878 175° South 460 529 35,000  Level Memphis Center
10:22PM 36.4878 -86.8311 160° South 462 532 35,000  Level Memphis Center
10:23PM 36.3739 -86.7794 160° South 476 548 35,000  Level Memphis Center
10:24PM 36.2217 -86.7064 159° South 487 560 35,000  Level Memphis Center
10:25PM 36.0992 -86.6528 161° South 481 554 35,000  Level Memphis Center
10:26PM 35.9764 -86.5994 161° South 472 543 35,000  Level Memphis Center
10:28PM 35.7356 -86.4947 161° South 484 557 35,000  Level Atlanta Center
10:29PM 35.6094 -86.4400 161° South 484 557 35,000  Level Atlanta Center
10:30PM 35.4853 -86.3878 161° South 479 551 35,000  Level Atlanta Center
10:31PM 35.3611 -86.3333 160° South 479 551 35,000  Level Atlanta Center
10:32PM 35.2328 -86.2686 158° South 479 551 35,000  Level Atlanta Center
10:33PM 35.1319 -86.1950 149° Southeast 485 558 35,000  Level Atlanta Center
10:34PM 34.9978 -86.1103 153° Southeast 485 558 35,000  Level Atlanta Center
10:35PM 34.8925 -86.0317 149° Southeast 490 564 35,000  Level Atlanta Center
10:36PM 34.7750 -85.9531 151° Southeast 490 564 35,000  Level Atlanta Center
10:37PM 34.6550 -85.8744 152° Southeast 495 570 35,000  Level Atlanta Center
10:38PM 34.5206 -85.7933 154° Southeast 495 570 35,000  Level Atlanta Center
10:39PM 34.3939 -85.7456 163° South 489 563 35,000  Level Atlanta Center
10:40PM 34.2694 -85.7028 164° South 473 544 35,000  Level Atlanta Center
10:41PM 34.1447 -85.6578 163° South 473 544 35,000  Level Atlanta Center
10:42PM 34.0242 -85.6103 162° South 468 539 35,000  Level Atlanta Center
10:43PM 33.8997 -85.5656 163° South 468 539 35,000  Level Atlanta Center
10:44PM 33.7811 -85.5233 164° South 452 520 35,000  Level Atlanta Center
10:45PM 33.6586 -85.4789 163° South 459 528 35,000  Level Atlanta Center
10:46PM 33.5381 -85.4344 163° South 459 528 35,000  Level Atlanta Center
10:47PM 33.4175 -85.3928 164° South 448 516 35,000  Level Atlanta Center
10:48PM 33.2925 -85.3461 163° South 459 528 35,000  Level Atlanta Center
10:49PM 33.1700 -85.3019 163° South 459 528 35,000  Level Atlanta Center
10:50PM 33.0578 -85.2608 163° South 459 528 35,000  Level Atlanta Center
10:51PM 32.9328 -85.2094 161° South 465 535 35,000  Level Atlanta Center
10:52PM 32.8061 -85.1633 163° South 470 541 35,000  Level Atlanta Center
10:53PM 32.6792 -85.1197 164° South 477 549 35,000  Level Atlanta Center
10:54PM 32.5522 -85.0714 162° South 471 542 35,000  Level Atlanta Center
10:55PM 32.4314 -85.0306 164° South 472 543 35,000  Level Atlanta Center
10:56PM 32.3003 -84.9850 164° South 472 543 35,000  Level Atlanta Center
10:58PM 32.0278 -84.8872 163° South 469 540 35,000  Level Jacksonville Center
10:59PM 31.8928 -84.8403 164° South 469 540 35,000  Level Jacksonville Center
11:00PM 31.7597 -84.7961 164° South 464 534 35,000  Level Jacksonville Center
11:01PM 31.6331 -84.7494 163° South 469 540 35,000  Level Jacksonville Center
11:02PM 31.5125 -84.7081 164° South 464 534 35,000  Level Jacksonville Center
11:03PM 31.3922 -84.6644 163° South 458 527 35,000  Level Jacksonville Center
11:04PM 31.2736 -84.6233 163° South 452 520 35,000  Level Jacksonville Center
11:05PM 31.1511 -84.5797 163° South 452 520 35,000  Level Jacksonville Center
11:06PM 31.0325 -84.5389 164° South 452 520 35,000  Level Jacksonville Center
11:07PM 30.9100 -84.4956 163° South 452 520 35,000  Level Jacksonville Center
11:08PM 30.7914 -84.4547 164° South 452 520 35,000  Level Jacksonville Center
11:09PM 30.6772 -84.3925 155° Southeast 452 520 35,000  Level Jacksonville Center
11:10PM 30.5633 -84.3256 153° Southeast 452 520 35,000  Level Jacksonville Center
11:11PM 30.4575 -84.2517 149° Southeast 452 520 35,000  Level Jacksonville Center
11:12PM 30.3456 -84.1828 152° Southeast 452 520 35,000  Level Jacksonville Center
11:13PM 30.2356 -84.1164 152° Southeast 452 520 35,000 -60 Level Jacksonville Center
11:14PM 30.1256 -84.0478 152° Southeast 452 520 34,900 -60 Descending Jacksonville Center
11:15PM 30.0156 -83.9817 153° Southeast 452 520 34,900  Level Jacksonville Center
11:16PM 29.9075 -83.9108 150° Southeast 452 520 34,900 -660 Level Jacksonville Center
11:17PM 29.8017 -83.8475 153° Southeast 447 514 33,600 -1,560 Descending Jacksonville Center
11:18PM 29.6892 -83.7794 152° Southeast 447 514 31,900 -1,200 Descending Jacksonville Center
11:19PM 29.5811 -83.7117 151° Southeast 447 514 31,200 -1,380 Descending Jacksonville Center
11:20PM 29.4731 -83.6439 151° Southeast 447 514 29,200 -2,100 Descending Jacksonville Center
11:21PM 29.3692 -83.5811 152° Southeast 442 509 27,100 -1,140 Descending Jacksonville Center
11:22PM 29.2628 -83.5161 152° Southeast 435 501 27,000 -180 Descending Jacksonville Center
11:23PM 29.1631 -83.4561 152° Southeast 424 488 26,800 -1,080 Descending Jacksonville Center
11:24PM 29.0589 -83.3892 151° Southeast 419 482 24,900 -1,980 Descending Jacksonville Center
11:25PM 28.9569 -83.3292 153° Southeast 419 482 22,900 -2,040 Descending Jacksonville Center
11:26PM 28.8589 -83.2719 153° Southeast 406 467 20,900 -1,980 Descending Jacksonville Center
11:27PM 28.7631 -83.2100 150° Southeast 406 467 19,000 -1,860 Descending Jacksonville Center
11:28PM 28.6650 -83.1528 153° Southeast 399 459 17,200 -1,920 Descending Jacksonville Center
11:29PM 28.5833 -83.1000 150° Southeast 390 449 15,400 -2,100 Descending Tampa TRACON
11:30PM 28.5167 -83.0667 156° South 385 443 14,100 -1,680 Descending Tampa TRACON
11:31PM 28.4333 -83.0167 152° Southeast 375 432 12,800 -1,020 Descending Tampa TRACON
11:32PM 28.3500 -82.9500 145° Southeast 333 383 12,000 -1,140 Descending Tampa TRACON
11:33PM 28.2833 -82.9000 147° Southeast 318 366 10,600 -1,500 Descending Tampa TRACON
11:34PM 28.2000 -82.8500 152° Southeast 309 356 9,000 -1,440 Descending Tampa TRACON
11:35PM 28.1167 -82.8000 152° Southeast 301 346 7,700 -1,200 Descending Tampa TRACON
11:36PM 28.0500 -82.7500 146° Southeast 284 327 6,600 -1,200 Descending Tampa TRACON
11:37PM 28.0000 -82.7167 150° Southeast 279 321 5,400 -1,380 Descending Tampa TRACON
11:38PM 27.9167 -82.6667 152° Southeast 269 310 3,900 -1,320 Descending Tampa TRACON
11:39PM 27.8667 -82.6167 139° Southeast 222 255 2,600 -960 Descending Tampa TRACON
11:40PM 27.8333 -82.5833 139° Southeast 190 219 2,100 -660 Descending Tampa TRACON